Ackworth, Iowa
Current Conditions -  °F | °C
As of 1:54 AM on Monday 22 Dec 2014 (Local Time) from KDSM Reporting Station
Drizzle Drizzle  
Wind Chill: 35°   Ceiling: 700
Heat Index: 42°   Visibility: 5mi
Dew Point: 38°   Wind: 14mph
Humidity: 85%   Direction: 170°S
Pressure: 29.72"   Gusts: NA
Location:  41.37°N, 93.47°W
Report Text: KDSM 220754Z 17012KT 5SM -DZ BR OVC007 06/03 A2972 RMK AO2 RAE40DZB40 CIG 005V011 SLP067 P0002 T00560033
Loading
Personal Weather Stations






























Interactive Weather Map New forecast layout! Learn more

10-Day Weather Forecast

Advertisements
Track Severe Weather on mobile